Time;durP1;ratioP1;P1;durP2;ratioP2;P2;SDS_P1;SDS_P2;PMS_P1;PMS_P2;Temp;Humidity;BMP_temperature;BMP_pressure;BME280_temperature;BME280_humidity;BME280_pressure;Samples;Min_cycle;Max_cycle;Signal;HPM_P1;HPM_P2
2022/05/13 00:00:18;;;;;;;;;6.00;5.40;;;;;21.41;36.98;98882.44;6250668;27;97012;-75
2022/05/13 00:03:21;;;;;;;;;5.80;4.20;;;;;21.40;36.82;98878.09;6249749;27;97439;-75
2022/05/13 00:06:24;;;;;;;;;5.00;5.00;;;;;21.39;37.07;98890.16;6250955;27;97618;-75
2022/05/13 00:12:46;;;;;;;;;5.00;5.00;;;;;21.36;37.67;98885.25;6249305;27;96472;-75
2022/05/13 00:15:50;;;;;;;;;6.80;5.00;;;;;21.40;36.27;98891.81;6250673;27;96735;-76
2022/05/13 00:18:53;;;;;;;;;5.00;4.40;;;;;21.38;36.35;98880.31;6182518;28;98360;-75
2022/05/13 00:21:56;;;;;;;;;5.00;5.00;;;;;21.47;36.05;98865.66;6251902;27;98419;-75
2022/05/13 00:25:00;;;;;;;;;5.00;5.00;;;;;21.53;35.52;98861.75;6183788;28;96959;-75
2022/05/13 00:28:07;;;;;;;;;4.80;3.80;;;;;21.56;34.48;98858.41;6251625;27;97837;-76
2022/05/13 00:31:12;;;;;;;;;5.75;5.50;;;;;21.42;34.92;98826.50;6250080;27;97284;-75
2022/05/13 00:34:15;;;;;;;;;5.00;4.50;;;;;21.55;34.88;98861.47;6233006;27;98174;-75
2022/05/13 00:37:18;;;;;;;;;4.00;3.40;;;;;21.45;36.17;98847.88;6237464;27;97197;-75
2022/05/13 00:40:28;;;;;;;;;4.00;4.00;;;;;21.05;36.13;98811.56;6237945;27;97014;-75
2022/05/13 00:43:46;;;;;;;;;4.40;4.00;;;;;21.27;36.67;98854.09;6254709;27;98955;-75
2022/05/13 00:46:50;;;;;;;;;7.00;5.00;;;;;21.21;36.87;98847.06;6172434;27;97621;-76
2022/05/13 00:49:56;;;;;;;;;6.00;5.00;;;;;21.15;37.56;98843.56;6254144;27;96670;-75
2022/05/13 00:53:00;;;;;;;;;7.00;6.00;;;;;21.10;37.61;98849.06;6186965;28;96419;-74
2022/05/13 00:56:04;;;;;;;;;6.00;6.00;;;;;20.99;37.74;98855.75;6254355;27;98363;-75
2022/05/13 00:59:13;;;;;;;;;7.00;5.00;;;;;20.71;37.84;98830.03;6254189;27;96717;-75
2022/05/13 01:02:17;;;;;;;;;6.00;5.00;;;;;20.80;38.38;98866.66;6254334;27;96991;-75
2022/05/13 01:05:22;;;;;;;;;4.00;4.00;;;;;20.68;38.64;98856.06;6254212;27;96613;-75
2022/05/13 01:08:26;;;;;;;;;5.00;4.00;;;;;20.62;38.64;98862.69;6253189;27;97845;-76
2022/05/13 01:11:33;;;;;;;;;5.00;5.00;;;;;20.58;38.81;98856.16;6185850;27;96795;-75
2022/05/13 01:14:41;;;;;;;;;4.50;4.00;;;;;20.49;39.00;98863.34;6288419;27;97160;-75
2022/05/13 01:21:22;;;;;;;;;5.00;5.00;;;;;20.38;38.97;98856.31;6196425;28;97463;-75
2022/05/13 01:24:27;;;;;;;;;5.00;4.20;;;;;20.21;39.04;98825.78;6212646;28;97452;-75
2022/05/13 01:27:31;;;;;;;;;4.60;4.60;;;;;20.27;39.15;98854.75;6208536;28;97786;-75
2022/05/13 01:30:34;;;;;;;;;4.00;4.00;;;;;20.16;39.83;98848.53;6183182;28;98064;-75
2022/05/13 01:33:39;;;;;;;;;4.00;4.00;;;;;20.06;39.92;98848.59;6183618;28;96648;-75
2022/05/13 01:36:43;;;;;;;;;5.00;5.00;;;;;20.04;39.77;98856.25;6195057;28;96838;-75
2022/05/13 01:39:48;;;;;;;;;5.50;5.50;;;;;20.00;40.19;98841.50;6211584;28;96733;-74
2022/05/13 01:42:51;;;;;;;;;4.00;4.00;;;;;19.95;40.21;98835.25;6194205;28;97587;-75
2022/05/13 01:45:55;;;;;;;;;6.00;6.00;;;;;19.92;40.57;98842.13;6189976;28;97557;-75
2022/05/13 01:48:59;;;;;;;;;5.00;5.00;;;;;19.88;40.39;98850.09;6168046;28;97418;-77
2022/05/13 01:52:03;;;;;;;;;5.00;5.00;;;;;19.87;40.04;98850.38;6220658;27;99290;-75
2022/05/13 01:55:10;;;;;;;;;6.00;5.60;;;;;19.86;39.84;98844.06;6273332;27;96699;-74
2022/05/13 01:58:15;;;;;;;;;6.00;5.00;;;;;19.80;40.00;98831.53;6288280;27;97138;-76
2022/05/13 02:01:18;;;;;;;;;5.60;5.60;;;;;19.56;40.24;98814.16;6288256;27;97340;-75
2022/05/13 02:04:22;;;;;;;;;5.00;5.00;;;;;19.58;41.08;98841.22;6289500;27;97914;-76
2022/05/13 02:07:25;;;;;;;;;5.00;5.00;;;;;19.56;41.21;98843.41;6289760;27;97511;-74
2022/05/13 02:10:30;;;;;;;;;6.00;5.20;;;;;19.55;41.38;98841.81;6288099;27;96994;-76
2022/05/13 02:13:33;;;;;;;;;6.00;5.25;;;;;19.55;41.43;98828.13;6287844;27;96917;-75
2022/05/13 02:16:37;;;;;;;;;5.25;5.00;;;;;19.41;42.23;98819.66;6289497;27;96762;-74
2022/05/13 02:19:40;;;;;;;;;4.00;4.00;;;;;19.35;42.23;98816.13;6288150;27;100069;-74
2022/05/13 02:22:43;;;;;;;;;6.40;5.00;;;;;19.35;42.53;98813.41;6289532;27;97645;-74
2022/05/13 02:25:49;;;;;;;;;6.00;5.00;;;;;19.38;42.07;98809.31;6288232;27;97984;-76
2022/05/13 02:28:52;;;;;;;;;4.25;3.25;;;;;19.40;42.18;98813.38;6270952;27;97921;-75
2022/05/13 02:31:56;;;;;;;;;5.00;4.00;;;;;19.42;42.20;98821.31;6287968;27;96813;-75
2022/05/13 02:34:59;;;;;;;;;6.00;5.00;;;;;19.42;42.59;98816.66;6270263;27;97735;-75
2022/05/13 02:38:02;;;;;;;;;6.50;6.50;;;;;19.37;42.73;98816.69;6287737;27;96566;-74
2022/05/13 02:41:14;;;;;;;;;7.00;6.00;;;;;19.47;42.41;98824.06;6270384;27;98026;-76
2022/05/13 02:44:18;;;;;;;;;7.60;7.00;;;;;19.54;42.44;98824.56;6287622;27;97116;-76
2022/05/13 02:47:22;;;;;;;;;4.00;4.00;;;;;19.58;42.76;98819.34;6262003;27;98346;-75
2022/05/13 02:50:26;;;;;;;;;7.00;5.60;;;;;19.40;42.63;98787.97;6285982;27;98873;-74
2022/05/13 02:53:29;;;;;;;;;5.00;4.00;;;;;19.69;41.52;98820.94;6287070;27;96855;-74
2022/05/13 02:56:34;;;;;;;;;5.75;5.00;;;;;19.45;41.52;98787.94;6287333;27;97938;-75
2022/05/13 02:59:38;;;;;;;;;4.20;4.20;;;;;18.86;42.22;98717.69;6286444;27;96841;-74
2022/05/13 03:02:43;;;;;;;;;6.00;6.00;;;;;19.57;42.45;98814.97;6280731;27;99674;-73
2022/05/13 03:05:47;;;;;;;;;4.20;4.20;;;;;19.50;42.65;98818.00;6285739;27;98057;-74
2022/05/13 03:08:50;;;;;;;;;7.00;6.00;;;;;19.46;42.69;98823.22;6278107;27;98965;-75
2022/05/13 03:11:55;;;;;;;;;6.60;5.00;;;;;19.48;42.98;98816.66;6284609;27;96965;-74
2022/05/13 03:14:58;;;;;;;;;5.40;5.00;;;;;19.46;43.31;98820.50;6285051;27;96968;-74
2022/05/13 03:18:02;;;;;;;;;5.00;5.00;;;;;19.49;42.98;98821.03;6285558;27;98110;-74
2022/05/13 03:21:05;;;;;;;;;6.00;6.00;;;;;19.50;43.43;98819.94;6285616;27;96934;-74
2022/05/13 03:24:09;;;;;;;;;8.00;7.00;;;;;19.30;43.18;98786.09;6287661;27;97473;-75
2022/05/13 03:27:13;;;;;;;;;6.50;6.50;;;;;19.54;43.21;98824.56;6288604;27;97484;-75
2022/05/13 03:30:19;;;;;;;;;8.00;7.00;;;;;19.53;43.35;98822.94;6285807;27;99757;-74
2022/05/13 03:33:22;;;;;;;;;7.40;7.00;;;;;19.55;43.37;98826.19;6286024;27;98825;-75
2022/05/13 03:36:26;;;;;;;;;7.40;6.00;;;;;19.53;43.50;98822.94;6285334;27;98472;-74
2022/05/13 03:39:30;;;;;;;;;7.00;6.00;;;;;19.54;43.41;98819.09;6285206;27;96652;-74
2022/05/13 03:42:37;;;;;;;;;8.00;7.40;;;;;19.53;43.44;98813.91;6286907;27;96969;-75
2022/05/13 03:45:40;;;;;;;;;8.25;6.75;;;;;19.63;43.55;98831.09;6287282;27;96870;-75
2022/05/13 03:48:44;;;;;;;;;6.00;6.00;;;;;19.64;43.59;98830.00;6268326;27;96599;-75
2022/05/13 03:51:47;;;;;;;;;7.60;7.00;;;;;19.70;43.54;98828.84;6285319;27;98563;-74
2022/05/13 03:54:51;;;;;;;;;8.00;6.00;;;;;19.78;43.47;98830.19;6285246;27;98384;-76
2022/05/13 03:57:56;;;;;;;;;6.20;6.00;;;;;19.68;43.34;98808.34;6267646;27;97836;-77
2022/05/13 04:01:00;;;;;;;;;9.00;6.80;;;;;19.79;43.03;98838.09;6268153;27;97456;-74
2022/05/13 04:04:05;;;;;;;;;10.50;8.00;;;;;19.78;43.44;98846.59;6285259;27;97134;-75
2022/05/13 04:10:29;;;;;;;;;8.00;6.60;;;;;19.58;43.53;98836.59;6285689;27;98586;-75
2022/05/13 04:16:56;;;;;;;;;8.40;7.00;;;;;19.72;43.63;98845.81;6255349;27;97959;-75
2022/05/13 04:19:59;;;;;;;;;10.00;8.00;;;;;19.65;43.80;98842.53;6250258;27;98440;-75
2022/05/13 04:23:03;;;;;;;;;8.60;8.00;;;;;19.70;43.54;98838.97;6207973;27;98054;-75
2022/05/13 04:26:06;;;;;;;;;10.00;7.00;;;;;19.75;43.97;98850.69;6228480;27;98805;-75
2022/05/13 04:29:11;;;;;;;;;8.00;7.20;;;;;19.83;43.18;98854.78;6250405;27;98389;-74
2022/05/13 04:32:15;;;;;;;;;10.00;8.25;;;;;19.91;43.16;98862.38;6211905;27;97511;-74
2022/05/13 04:35:18;;;;;;;;;9.00;8.00;;;;;20.04;43.14;98856.25;6293874;27;98032;-74
2022/05/13 04:38:21;;;;;;;;;9.60;9.00;;;;;20.19;42.99;98847.94;6201781;27;97785;-74
2022/05/13 04:44:49;;;;;;;;;9.00;8.00;;;;;20.45;43.05;98845.88;6248755;27;96805;-74
2022/05/13 04:51:14;;;;;;;;;9.00;8.60;;;;;20.64;41.92;98843.22;6178272;27;96677;-75
2022/05/13 04:54:17;;;;;;;;;8.00;8.00;;;;;20.75;42.39;98851.06;6182585;27;97383;-75
2022/05/13 04:57:20;;;;;;;;;10.80;8.40;;;;;20.90;41.89;98852.03;6181500;27;97536;-75
2022/05/13 05:00:25;;;;;;;;;10.00;9.00;;;;;21.06;42.15;98859.00;6184039;28;97006;-74
2022/05/13 05:03:30;;;;;;;;;10.80;9.80;;;;;21.23;40.92;98864.03;6205756;27;96792;-75
2022/05/13 05:06:34;;;;;;;;;9.25;9.25;;;;;20.89;39.74;98782.69;6247000;27;97431;-75
2022/05/13 05:09:52;;;;;;;;;9.00;8.00;;;;;21.56;38.64;98880.34;6240977;27;97168;-73
2022/05/13 05:12:57;;;;;;;;;9.00;7.00;;;;;21.67;38.13;98872.00;6250482;27;97096;-75
2022/05/13 05:16:02;;;;;;;;;10.00;9.00;;;;;21.72;37.57;98870.00;6249023;27;98486;-76
2022/05/13 05:19:08;;;;;;;;;10.60;9.00;;;;;21.73;40.08;98868.91;6247254;27;98519;-74
2022/05/13 05:22:11;;;;;;;;;9.00;8.00;;;;;21.70;41.03;98868.69;6259548;27;97411;-74
2022/05/13 05:25:16;;;;;;;;;10.00;9.60;;;;;21.67;41.14;98866.50;6186103;27;97951;-74
2022/05/13 05:28:19;;;;;;;;;11.00;9.00;;;;;21.69;40.76;98862.38;6185998;28;96982;-74
2022/05/13 05:31:24;;;;;;;;;9.00;9.00;;;;;21.65;40.66;98836.59;6253868;27;96630;-74
2022/05/13 05:34:27;;;;;;;;;14.00;10.60;;;;;21.71;40.35;98845.59;6185784;27;97814;-75
2022/05/13 05:37:30;;;;;;;;;14.00;11.00;;;;;21.44;39.87;98796.88;6251889;27;97441;-75
2022/05/13 05:40:34;;;;;;;;;11.60;10.00;;;;;21.71;39.79;98843.66;6185261;28;97465;-76
2022/05/13 05:43:38;;;;;;;;;10.80;10.00;;;;;21.85;39.47;98844.56;6252082;27;98336;-76
2022/05/13 05:46:42;;;;;;;;;8.33;8.33;;;;;22.00;38.99;98846.31;6252555;27;97184;-75
2022/05/13 05:49:46;;;;;;;;;9.00;8.00;;;;;22.13;38.19;98855.75;6252776;27;96490;-74
2022/05/13 05:52:49;;;;;;;;;8.00;7.00;;;;;22.36;37.85;98863.06;6252179;27;97380;-76
2022/05/13 05:59:13;;;;;;;;;6.60;6.00;;;;;22.92;34.07;98860.19;6252575;27;97042;-75
2022/05/13 06:02:18;;;;;;;;;6.00;4.20;;;;;23.00;34.08;98815.50;6252076;27;97498;-76
2022/05/13 06:05:21;;;;;;;;;5.80;5.00;;;;;23.58;33.73;98858.94;6236046;27;97549;-76
2022/05/13 06:08:25;;;;;;;;;5.20;5.00;;;;;23.81;32.26;98865.31;6235066;27;97479;-75
2022/05/13 06:11:29;;;;;;;;;7.60;6.00;;;;;24.13;32.01;98867.91;6185361;28;96572;-76
2022/05/13 06:14:32;;;;;;;;;7.00;6.00;;;;;24.32;31.60;98865.81;6286388;27;98434;-75
2022/05/13 06:17:43;;;;;;;;;7.00;6.00;;;;;24.39;32.38;98866.19;6288425;27;100098;-76
2022/05/13 06:20:46;;;;;;;;;5.00;5.00;;;;;24.58;32.59;98864.06;6288247;27;97172;-75
2022/05/13 06:23:49;;;;;;;;;4.60;4.60;;;;;24.66;30.83;98862.50;6288381;27;98883;-75
2022/05/13 06:26:52;;;;;;;;;5.40;4.00;;;;;24.53;30.76;98847.66;6289662;27;97551;-74
2022/05/13 06:29:56;;;;;;;;;4.00;4.00;;;;;24.60;29.83;98863.75;6270468;27;96641;-75
2022/05/13 06:33:02;;;;;;;;;5.00;4.00;;;;;24.60;30.35;98836.19;6287694;27;96752;-75
2022/05/13 06:36:06;;;;;;;;;4.00;4.00;;;;;24.97;30.01;98846.00;6271045;27;97559;-75
2022/05/13 06:39:09;;;;;;;;;4.80;4.80;;;;;25.14;29.47;98846.09;6289128;27;97423;-75
2022/05/13 06:42:12;;;;;;;;;4.00;4.00;;;;;25.51;29.69;98841.19;6289264;27;97449;-75
2022/05/13 06:45:18;;;;;;;;;5.00;4.20;;;;;25.76;29.40;98837.69;6289661;27;96686;-75
2022/05/13 06:48:24;;;;;;;;;4.50;4.00;;;;;26.05;29.17;98832.34;6284996;27;96817;-75
2022/05/13 06:51:27;;;;;;;;;5.00;4.00;;;;;26.19;28.71;98829.44;6288092;27;96474;-75
2022/05/13 06:54:31;;;;;;;;;6.00;5.20;;;;;26.25;28.71;98839.22;6289346;27;97569;-74
2022/05/13 06:57:34;;;;;;;;;5.00;4.60;;;;;26.30;29.04;98836.28;6289444;27;96480;-74
2022/05/13 07:00:38;;;;;;;;;5.50;4.00;;;;;26.39;29.21;98839.06;6289353;27;96376;-75
2022/05/13 07:03:43;;;;;;;;;5.60;5.60;;;;;26.23;29.67;98802.81;6288573;27;96719;-75
2022/05/13 07:06:46;;;;;;;;;4.60;4.00;;;;;26.66;29.85;98838.69;6287788;27;96825;-75
2022/05/13 07:09:50;;;;;;;;;5.00;4.00;;;;;26.74;29.46;98841.44;6270596;27;96862;-75
2022/05/13 07:12:53;;;;;;;;;6.00;6.00;;;;;26.85;29.69;98830.81;6263832;27;97078;-74
2022/05/13 07:15:58;;;;;;;;;5.25;4.25;;;;;27.06;29.74;98828.19;6234344;27;99420;-75
2022/05/13 07:19:03;;;;;;;;;5.00;5.00;;;;;27.56;27.99;98840.19;6184274;28;97066;-76
2022/05/13 07:22:06;;;;;;;;;5.00;5.00;;;;;27.94;27.91;98845.66;6234815;27;99923;-75
2022/05/13 07:25:10;;;;;;;;;8.00;7.00;;;;;28.11;27.78;98832.81;6251734;27;96820;-75
2022/05/13 07:28:14;;;;;;;;;8.00;6.00;;;;;28.36;27.57;98835.41;6252042;27;96527;-75
2022/05/13 07:31:17;;;;;;;;;9.60;8.00;;;;;28.55;27.86;98839.63;6250964;27;97087;-74
2022/05/13 07:34:22;;;;;;;;;6.00;5.00;;;;;28.81;28.11;98834.66;6232170;27;97798;-76
2022/05/13 07:37:26;;;;;;;;;7.00;6.60;;;;;29.16;27.38;98832.31;6250000;27;96509;-75
2022/05/13 07:43:52;;;;;;;;;9.60;7.60;;;;;29.05;26.70;98826.38;6249014;27;97424;-75
2022/05/13 07:46:55;;;;;;;;;7.00;6.00;;;;;29.06;26.47;98830.78;6233331;27;98885;-76
2022/05/13 07:50:00;;;;;;;;;6.25;6.00;;;;;29.27;26.78;98839.03;6249772;27;96391;-76
2022/05/13 07:53:03;;;;;;;;;5.00;5.00;;;;;29.40;25.25;98837.09;6250397;27;99860;-75
2022/05/13 07:56:08;;;;;;;;;5.60;4.60;;;;;29.42;24.44;98823.69;6250877;27;96806;-76
2022/05/13 07:59:11;;;;;;;;;5.00;5.00;;;;;29.38;25.26;98831.06;6250573;27;97573;-75
2022/05/13 08:02:15;;;;;;;;;5.00;4.50;;;;;29.01;24.69;98805.22;6249459;27;96452;-75
2022/05/13 08:05:20;;;;;;;;;4.00;4.00;;;;;28.98;24.75;98826.13;6249622;27;97740;-75
2022/05/13 08:08:27;;;;;;;;;5.00;4.00;;;;;29.27;26.92;98822.38;6248906;27;99477;-76
2022/05/13 08:11:31;;;;;;;;;8.00;7.00;;;;;29.32;24.36;98821.34;6184385;28;96916;-76
2022/05/13 08:14:41;;;;;;;;;5.00;5.00;;;;;29.45;24.99;98821.00;6250061;27;98506;-75
2022/05/13 08:17:45;;;;;;;;;5.00;5.00;;;;;29.41;24.67;98822.06;6184052;28;97160;-75
2022/05/13 08:20:50;;;;;;;;;4.25;4.00;;;;;29.25;25.03;98830.22;6234442;27;97790;-76
2022/05/13 08:23:54;;;;;;;;;4.50;4.50;;;;;29.19;24.73;98837.16;6184001;28;96538;-75
2022/05/13 08:26:57;;;;;;;;;5.00;4.00;;;;;29.29;25.71;98820.84;6251498;27;97047;-76
2022/05/13 08:30:01;;;;;;;;;6.00;5.40;;;;;28.43;25.06;98674.84;6183900;28;96426;-75
2022/05/13 08:33:08;;;;;;;;;6.00;5.00;;;;;29.46;24.62;98830.97;6250726;27;96514;-75
2022/05/13 08:36:13;;;;;;;;;5.00;4.00;;;;;29.52;24.75;98834.28;6233540;27;99757;-76
2022/05/13 08:39:16;;;;;;;;;4.00;3.00;;;;;29.56;24.41;98833.28;6183688;28;98006;-76
2022/05/13 08:42:26;;;;;;;;;5.40;4.00;;;;;29.32;25.01;98810.25;6234355;27;98439;-75
2022/05/13 08:45:31;;;;;;;;;6.00;5.00;;;;;29.42;25.47;98812.56;6234168;27;97325;-76
2022/05/13 08:48:43;;;;;;;;;6.50;5.50;;;;;29.53;25.83;98802.59;6234577;27;98446;-76
2022/05/13 08:52:03;;;;;;;;;4.60;4.00;;;;;29.74;25.72;98811.59;6183512;28;96539;-76
2022/05/13 08:55:10;;;;;;;;;7.00;6.00;;;;;30.26;25.67;98833.03;6248584;27;98492;-74
2022/05/13 08:58:20;;;;;;;;;7.25;6.25;;;;;30.53;25.61;98818.38;6237475;27;96651;-76
2022/05/13 09:01:28;;;;;;;;;7.00;6.00;;;;;30.76;26.09;98813.81;6236792;27;99419;-74
2022/05/13 09:04:37;;;;;;;;;8.00;5.00;;;;;30.88;25.20;98790.69;6254537;27;97183;-73
2022/05/13 09:07:44;;;;;;;;;6.00;5.00;;;;;31.17;24.30;98818.13;6185214;28;96934;-74
2022/05/13 09:10:59;;;;;;;;;7.80;6.00;;;;;31.04;24.12;98821.31;6254243;27;96899;-73
2022/05/13 09:14:10;;;;;;;;;7.00;6.00;;;;;30.91;24.52;98826.16;6188196;28;97137;-70
2022/05/13 09:17:33;;;;;;;;;7.00;7.00;;;;;30.72;25.29;98821.28;6184911;28;97664;-71
2022/05/13 09:20:43;;;;;;;;;7.40;6.40;;;;;30.60;23.99;98815.75;6186560;28;96763;-72
2022/05/13 09:23:49;;;;;;;;;6.40;5.60;;;;;30.49;24.59;98801.59;6255222;27;98423;-72
2022/05/13 09:26:52;;;;;;;;;6.40;6.00;;;;;30.73;24.61;98811.78;6188703;28;97416;-71
2022/05/13 09:29:56;;;;;;;;;6.00;5.00;;;;;30.95;24.94;98813.13;6255169;27;96511;-73
2022/05/13 09:33:19;;;;;;;;;7.40;6.00;;;;;30.89;23.59;98811.75;6188039;28;97521;-72
2022/05/13 09:36:35;;;;;;;;;8.00;7.20;;;;;30.64;23.64;98810.31;6256375;27;98440;-71
2022/05/13 09:39:43;;;;;;;;;7.60;6.00;;;;;30.31;24.03;98813.31;6253978;27;96938;-71
2022/05/13 09:42:48;;;;;;;;;7.00;7.00;;;;;30.15;24.28;98818.84;6187098;28;97022;-70
2022/05/13 09:46:04;;;;;;;;;8.00;8.00;;;;;30.08;24.50;98808.31;6256614;27;98577;-72
2022/05/13 09:49:24;;;;;;;;;7.80;6.80;;;;;29.70;24.19;98753.16;6250042;27;97901;-71
2022/05/13 09:52:32;;;;;;;;;6.00;6.00;;;;;29.92;24.32;98796.28;6186426;28;97509;-72
2022/05/13 09:55:41;;;;;;;;;6.00;5.60;;;;;29.91;23.99;98800.22;6255494;27;98424;-71
2022/05/13 09:58:52;;;;;;;;;8.00;6.60;;;;;29.80;24.43;98795.50;6238599;27;99521;-72
2022/05/13 10:02:17;;;;;;;;;9.00;7.40;;;;;29.88;23.79;98794.53;6230117;27;98444;-69
2022/05/13 10:05:23;;;;;;;;;8.00;7.00;;;;;29.95;23.48;98784.50;6228041;27;97521;-71
2022/05/13 10:08:28;;;;;;;;;8.00;8.00;;;;;30.22;24.09;98780.09;6164220;28;96844;-72
2022/05/13 10:15:08;;;;;;;;;5.20;5.20;;;;;30.94;23.09;98764.16;6255295;27;97533;-71
2022/05/13 10:18:20;;;;;;;;;8.40;7.40;;;;;31.10;22.89;98767.81;6186118;28;96780;-72
2022/05/13 10:21:29;;;;;;;;;8.40;7.00;;;;;31.17;22.09;98761.63;6254663;27;98253;-70
2022/05/13 10:24:39;;;;;;;;;6.00;6.00;;;;;31.33;22.27;98757.63;6185646;28;96601;-72
2022/05/13 10:27:49;;;;;;;;;7.00;7.00;;;;;31.65;22.54;98758.41;6252829;27;97232;-71
2022/05/13 10:30:57;;;;;;;;;8.60;6.60;;;;;31.94;21.95;98743.09;6185519;28;96446;-70
2022/05/13 10:34:09;;;;;;;;;9.00;8.25;;;;;32.06;22.23;98744.94;6223167;27;98018;-72
2022/05/13 10:37:17;;;;;;;;;8.00;8.00;;;;;32.12;22.21;98732.31;6236643;27;96775;-72
2022/05/13 10:40:22;;;;;;;;;8.40;7.00;;;;;32.32;22.07;98733.94;6189535;28;97429;-74
2022/05/13 10:43:41;;;;;;;;;6.00;6.00;;;;;32.42;21.37;98729.72;6186566;28;96317;-72
2022/05/13 10:46:50;;;;;;;;;7.80;6.80;;;;;32.68;21.57;98721.47;6185274;28;97948;-67
2022/05/13 10:50:16;;;;;;;;;7.20;6.80;;;;;33.04;21.00;98722.84;6235751;27;97275;-69
2022/05/13 10:53:29;;;;;;;;;7.20;7.20;;;;;33.28;20.95;98718.91;6252694;27;96804;-67
2022/05/13 10:56:41;;;;;;;;;4.00;4.00;;;;;33.43;21.25;98706.72;6185331;28;96424;-68
2022/05/13 10:59:57;;;;;;;;;5.00;5.00;;;;;33.37;21.37;98689.50;6218811;27;97629;-67
2022/05/13 11:03:16;;;;;;;;;5.00;5.00;;;;;33.47;21.09;98702.81;6206701;27;96550;-70
2022/05/13 11:06:46;;;;;;;;;7.00;6.00;;;;;33.38;21.16;98696.69;6251973;27;96854;-71
2022/05/13 11:09:57;;;;;;;;;6.60;6.00;;;;;33.06;21.08;98690.59;6252517;27;99520;-70
2022/05/13 11:13:20;;;;;;;;;6.00;5.00;;;;;33.03;21.51;98690.56;6184519;28;97491;-68
2022/05/13 11:16:40;;;;;;;;;7.50;6.00;;;;;32.98;21.61;98688.06;6234059;27;96652;-70
2022/05/13 11:19:57;;;;;;;;;5.60;5.00;;;;;33.03;21.64;98671.81;6183099;28;96513;-70
2022/05/13 11:23:21;;;;;;;;;7.00;6.00;;;;;33.19;21.45;98679.22;6184169;28;96558;-68
2022/05/13 11:26:32;;;;;;;;;6.00;5.00;;;;;33.25;20.99;98675.75;6247556;27;98311;-69
2022/05/13 11:29:41;;;;;;;;;4.75;4.75;;;;;32.97;20.99;98675.28;6251148;27;96876;-71
2022/05/13 11:32:54;;;;;;;;;4.00;4.00;;;;;32.73;21.29;98675.69;6251701;27;98032;-71
2022/05/13 11:36:25;;;;;;;;;5.00;4.00;;;;;32.76;21.88;98675.75;6185043;28;96599;-68
2022/05/13 11:39:58;;;;;;;;;5.00;4.00;;;;;32.69;21.13;98666.44;6192461;27;96641;-70
2022/05/13 11:43:27;;;;;;;;;5.00;4.00;;;;;32.78;19.71;98658.63;6251744;27;97498;-70
2022/05/13 11:46:51;;;;;;;;;4.40;3.00;;;;;33.04;20.19;98667.00;6184857;28;96900;-71
2022/05/13 11:49:58;;;;;;;;;4.00;4.00;;;;;33.05;20.13;98665.81;6234161;27;97964;-70
2022/05/13 11:53:02;;;;;;;;;5.00;3.00;;;;;32.86;20.64;98657.53;6184731;28;96439;-71
2022/05/13 11:56:15;;;;;;;;;5.00;4.00;;;;;32.61;20.61;98652.34;6184412;28;96867;-69
2022/05/13 11:59:46;;;;;;;;;4.00;3.60;;;;;32.38;21.27;98650.72;6185747;27;96538;-67
2022/05/13 12:02:52;;;;;;;;;4.00;4.00;;;;;32.22;21.05;98622.94;6254587;27;97158;-69
2022/05/13 12:06:02;;;;;;;;;6.00;5.00;;;;;32.40;21.94;98629.63;6184668;28;97111;-70
2022/05/13 12:09:11;;;;;;;;;4.00;4.00;;;;;32.27;22.08;98628.22;6250487;27;98409;-70
2022/05/13 12:12:22;;;;;;;;;5.00;5.00;;;;;31.87;22.47;98625.03;6250958;27;96595;-68
2022/05/13 12:15:39;;;;;;;;;4.00;3.00;;;;;32.03;22.29;98615.41;6251103;27;97156;-65
2022/05/13 12:18:48;;;;;;;;;4.00;4.00;;;;;31.92;22.06;98614.38;6234101;27;96723;-65
2022/05/13 12:22:02;;;;;;;;;6.25;5.00;;;;;31.89;22.53;98611.53;6185267;28;96562;-67
2022/05/13 12:25:09;;;;;;;;;4.60;4.00;;;;;31.67;22.93;98611.09;6256959;27;96552;-67
2022/05/13 12:28:25;;;;;;;;;6.00;5.00;;;;;31.83;23.38;98591.50;6193820;27;96715;-67
2022/05/13 12:31:46;;;;;;;;;4.40;3.60;;;;;32.16;22.36;98586.19;6253415;27;97417;-67
2022/05/13 12:39:05;;;;;;;;;4.00;4.00;;;;;32.02;22.03;98585.91;6279059;27;97424;-65
2022/05/13 12:42:11;;;;;;;;;5.00;4.00;;;;;32.20;22.68;98569.53;6226425;28;97808;-67
2022/05/13 12:45:22;;;;;;;;;4.40;4.40;;;;;32.44;22.46;98549.59;6257986;28;96409;-70
2022/05/13 12:48:26;;;;;;;;;5.00;5.00;;;;;32.25;21.84;98536.53;6248881;28;96943;-67
2022/05/13 12:51:39;;;;;;;;;5.00;4.20;;;;;32.08;22.38;98539.00;6236417;27;96906;-65
2022/05/13 12:54:49;;;;;;;;;6.00;5.00;;;;;31.82;22.36;98534.94;6234374;28;97850;-66
2022/05/13 12:57:56;;;;;;;;;4.80;4.80;;;;;31.71;22.60;98535.94;6222839;28;97094;-66
2022/05/13 13:01:02;;;;;;;;;6.00;5.00;;;;;31.92;23.03;98524.34;6234771;28;96734;-67
2022/05/13 13:04:08;;;;;;;;;6.00;5.00;;;;;32.01;22.85;98528.50;6238125;28;97166;-68
2022/05/13 13:07:20;;;;;;;;;4.00;4.00;;;;;32.07;22.22;98531.78;6243828;28;96476;-69
2022/05/13 13:10:25;;;;;;;;;4.50;4.00;;;;;32.25;22.62;98539.31;6191577;28;97051;-66
2022/05/13 13:13:35;;;;;;;;;5.75;5.00;;;;;32.33;22.42;98529.09;6184886;28;97366;-67
2022/05/13 13:16:43;;;;;;;;;5.00;4.00;;;;;32.11;22.54;98527.91;6255678;27;97232;-66
2022/05/13 13:19:48;;;;;;;;;6.20;5.20;;;;;31.89;22.97;98534.28;6195230;28;96528;-67
2022/05/13 13:22:54;;;;;;;;;5.25;5.25;;;;;31.54;23.53;98539.16;6238265;27;98985;-68
2022/05/13 13:26:00;;;;;;;;;5.50;5.50;;;;;31.79;23.63;98526.53;6186395;28;97971;-68
2022/05/13 13:29:06;;;;;;;;;6.00;6.00;;;;;31.93;23.58;98512.84;6251829;27;97740;-66
2022/05/13 13:32:14;;;;;;;;;5.75;5.00;;;;;31.84;23.55;98498.34;6249254;27;96681;-67
2022/05/13 13:35:29;;;;;;;;;6.00;6.00;;;;;32.03;23.07;98503.84;6250979;27;96906;-68
2022/05/13 13:38:33;;;;;;;;;7.00;7.00;;;;;31.98;23.58;98504.16;6250648;27;98117;-68
2022/05/13 13:41:38;;;;;;;;;6.40;6.00;;;;;31.88;23.67;98506.75;6254469;27;97838;-67
2022/05/13 13:44:44;;;;;;;;;6.00;5.00;;;;;31.65;24.05;98504.78;6183779;28;96460;-68
2022/05/13 13:47:50;;;;;;;;;7.00;6.00;;;;;31.67;24.15;98508.00;6232586;27;98406;-68
2022/05/13 13:50:54;;;;;;;;;5.00;4.80;;;;;31.71;24.38;98494.94;6256421;27;98958;-68
2022/05/13 13:54:03;;;;;;;;;6.00;5.40;;;;;31.63;24.46;98492.38;6252665;27;96773;-68
2022/05/13 13:57:33;;;;;;;;;6.00;5.20;;;;;31.53;25.15;98502.13;6251863;27;96869;-69
2022/05/13 14:00:38;;;;;;;;;7.00;6.00;;;;;31.36;24.43;98494.25;6251229;27;97896;-71
2022/05/13 14:03:42;;;;;;;;;5.00;5.00;;;;;31.21;25.12;98503.50;6186504;27;96936;-70
2022/05/13 14:06:47;;;;;;;;;4.80;4.20;;;;;31.07;24.78;98501.22;6252047;27;98106;-69
2022/05/13 14:09:54;;;;;;;;;5.20;5.00;;;;;30.95;25.46;98496.56;6293519;27;96970;-70
2022/05/13 14:13:04;;;;;;;;;4.20;4.00;;;;;30.72;25.92;98495.66;6250061;27;97517;-67
2022/05/13 14:16:13;;;;;;;;;5.00;5.00;;;;;30.60;26.09;98475.50;6178321;28;96594;-68
2022/05/13 14:19:23;;;;;;;;;7.00;5.00;;;;;30.48;26.30;98470.88;6184646;28;97279;-67
2022/05/13 14:22:26;;;;;;;;;4.00;4.00;;;;;30.49;26.14;98461.38;6234807;27;97326;-70
2022/05/13 14:25:37;;;;;;;;;4.00;4.00;;;;;30.63;25.96;98452.53;6252479;27;97407;-70
2022/05/13 14:28:49;;;;;;;;;4.00;4.00;;;;;30.65;26.15;98444.59;6251766;27;97116;-70
2022/05/13 14:31:55;;;;;;;;;5.60;5.00;;;;;30.83;26.14;98443.84;6183041;28;96697;-69
2022/05/13 14:35:03;;;;;;;;;6.00;5.00;;;;;31.06;26.15;98434.75;6233756;27;97712;-70
2022/05/13 14:38:09;;;;;;;;;5.00;5.00;;;;;31.12;25.94;98430.50;6234300;27;98051;-70
2022/05/13 14:41:12;;;;;;;;;4.00;4.00;;;;;30.94;25.76;98425.34;6184811;28;96602;-69
2022/05/13 14:44:25;;;;;;;;;5.00;5.00;;;;;30.79;25.71;98423.44;6184629;28;97454;-70
2022/05/13 14:47:35;;;;;;;;;5.80;5.00;;;;;30.73;25.82;98419.38;6185449;28;97506;-71
2022/05/13 14:50:41;;;;;;;;;4.00;4.00;;;;;30.68;25.64;98421.63;6185031;28;96935;-70
2022/05/13 14:53:50;;;;;;;;;6.00;5.00;;;;;30.65;25.47;98423.16;6183984;28;96596;-70
2022/05/13 14:56:57;;;;;;;;;4.00;3.40;;;;;30.48;25.48;98418.03;6251116;27;97467;-70
2022/05/13 15:00:09;;;;;;;;;3.60;3.60;;;;;30.31;24.52;98416.41;6159784;27;97468;-69
2022/05/13 15:03:14;;;;;;;;;5.00;4.00;;;;;29.93;23.80;98414.34;6238684;27;96737;-70
2022/05/13 15:06:20;;;;;;;;;4.80;4.00;;;;;29.99;24.38;98409.31;6185436;28;97802;-70
2022/05/13 15:09:26;;;;;;;;;4.00;4.00;;;;;29.95;24.66;98406.47;6251071;27;98120;-71
2022/05/13 15:12:29;;;;;;;;;3.00;3.00;;;;;30.02;24.83;98400.25;6184873;28;96860;-73